Timeline UpdatesTrip UpdatesNews PostsPvt Posts♥♥Travel TipsAdmin PostsConv PostsFollowed PostsChat RequestsBlog PostsPNR Posts

Disclaimer
Search
 
 
Sun Dec 21, 2014 09:35:20 ISTHomeTrainsΣChainsAtlasPNRForumGalleryNewsFAQTripsMembersLoginFeedback
No Recent News for this Train
Other Trains in the News **new
Latest...
.
Tue Jan 15, 2013 (02:24AM)
⇐ Return Journey: Train# 54251

54252/Saharanpur-Lucknow Passenger

Time-Table HAS CHANGED.
Oct 18 2014 (7:12AM)
Change Departure Station:
Change Arrival Station:
Post a Train Travel TipPost a Train Travel Tip **new
Post a Comment/Question/Picture/VideoPost a Comment/Question/Picture/Video
Pantry/Catering
✕ NO Pantry Car
✕ NO Catering
RSA - Rake Sharing
54232/54233/54251/54252/54253/54254
Rake/Coach Composition
.
Loco
GZB WAP1
News    PNR    Forum    Time-Table    Availability    Fare Chart    Map    Arr/Dep History    Trips    Gallery    ΣChains    X/O    Timeline    
Travel Time: 15h 20m    55 halts    Distance: 412 km    Avg Speed: 26 km/hr
Type: Passenger
Zone: NR/Northern
Departs @ 12:45 (Avg 1h 10m late)
Platform# ???
SMTWTFS
Bundki/BEK 
Arrives @ 04:05 +1 night (Avg 1h 45m late)
Platform# 7
SMTWTFS
Lucknow Charbagh NR/LKO 

55 halts. 66 intermediate Stations between Bundki and Lucknow Charbagh NR

Show ALL intermediate Stations  Show Old Time-Table

#TrkCodeStation NameX/OArrivesAvgDepartsAvgHaltPFDay#KmSpeedElevZoneAddress
1/==/SRESaharanpur Junction (6)  -08:15+11--1-112.435276mNRSaharanpur, Uttar Pradesh
2/==/BAEBaliakheri  08:27 08:32+2308:29 08:34+262m--1-102.443274mNRSaharanpur, Uttar Pradesh
3/==/CDLChodialaX  08:45 08:49+2508:47 08:51+272m--1-91.844270mNRMDR 163W, Uttar Pradesh
4/==/IQBIqbalpurXO  08:55 09:00+2708:57 09:02+282m--1-85.221267mNRNational Highway 73, Uttar Pradesh
5/==/RKRoorkee (3)X  09:06 09:23+2509:08 09:25+332m11-77.717264mNRRoorkee - 247667, Uttarakhand
6/==/DNRADhandhera (2)X  09:19 09:35+2209:21 09:37+232m--1-74.943267mNRRoorkee - 247667, Uttarakhand
7/==/LDRLandaura (2)X  09:27 09:44+2409:29 09:46+262m--1-69.943261mNRHaridwar, Uttarakhand
8/==/DSNIDausni (2)  09:35 09:53+2709:37 09:55+342m--1-64.920244mNRLaksar, Uttarakhand
9/==/LRJLaksar Junction (4)X  10:10+2911:15+4365m11-59.969238mNRLaksar, Uttarakhand
10/==/RSIRaisi  11:22 11:25+4511:24 11:27+452m--1-48.534231mNRLaksar, Uttarakhand
11/==/BLWBalawali (2)  11:33 11:37+4611:35 11:39+492m--1-42.841242mNRNational Highway 119, Uttar Pradesh
12/==/CNKChandok (2)  11:43 11:49+4911:45 11:51+502m--1-35.992257mNRChandok, Uttar Pradesh
13|--|MZMMuzzampur Narayan (3)  11:53 11:59+4911:55 12:01+512m--1-23.740258mNRJunction Point - NBD/LRJ/BJO, Uttar Pradesh
14|--|FZLFazalpur (2)  12:02 12:09+5312:04 12:11+552m--1-18.431256mNRState Highway 49, Uttar Pradesh
15|--|NBDNajibabad Junction (3)  12:15 12:22+5012:25 12:27+5410 5m31-12.678269mNRNajibabad, Uttar Pradesh
16/==/MSDRMurshadpurX  12:31 12:34+5912:33 12:36+1:032m--1-3.631258mNRNagina, Uttar Pradesh
17/==/BEKBundki»X  12:40 12:43+1:0412:42 12:45+1:102m--10.059255mNRNagina, Uttar Pradesh
18/==/NGGNagina (3)  12:50 12:55+1:1512:55 12:57+1:185 2m--19.835247mNRNagina, Uttar Pradesh
19/==/PNIPuraini  13:05 13:07+1:1813:07 13:09+1:182m--115.742246mNRDhampur, Uttar Pradesh
20/==/HBWHabibwala  13:14 13:17+1:1713:16 13:19+1:172m--121.345239mNRNagina, Uttar Pradesh
21/==/DPRDhampur  13:22 13:26+1:1913:27 13:28+1:275 2m--126.635236mNRDhampur, Uttar Pradesh
22/==/CAJChakraj MalX  13:38 13:40+1:2313:40 13:42+1:252m--133.744229mNRNagina, Uttar Pradesh
23/==/SEOSeoharaO  13:45 13:51+1:2413:50 13:53+1:315 2m--140.338224mNRSeohara, Uttar Pradesh
24/==/MWEMewa NawadaX  14:08 14:09+1:2314:10 14:11+1:232m--150.449221mNRSahaspur, Uttar Pradesh
25/==/KNTKanth  14:15 14:19+1:2314:20 14:21+1:295 2m--156.940221mNRKanth, Uttar Pradesh
26/==/MTBMatlabpur  14:34+1:2714:36+1:352m--165.636216mNRMoradabad, Uttar Pradesh
27/==/AWPAghwanpur  14:48 14:52+1:3314:50 14:54+1:352m--175.243212mNRMoradabad, Uttar Pradesh
28/==/HRHHarthalaX  14:56 15:02+1:3714:59 15:04+1:483 2m--180.98206mNRMoradabad, Uttar Pradesh
29/==/MBMoradabad Junction (7)XO15:45+1:0917:00+5275m--186.345201mNRMoradabad, Uttar Pradesh
30/==/KGFKathghar  17:06 17:05+1:1217:07+1:101 2m--190.046199mNRMoradabad, Uttar Pradesh
31/==/DLPDalpatpur  17:18+1:1417:20+1:192m--198.548195mNRNH-24, Uttar Pradesh
32/==/MPHMundha PandeX  17:27 17:28+1:2117:29 17:30+1:252m--1104.952191mNRNH 24, Uttar Pradesh
33/==/RMURampur Junction (3)  17:40+1:1717:42+1:312m--1113.635190mNRRampur, Uttar Pradesh
34/==/SARShahzad Nagar  17:53+1:4017:55+1:442m--1120.140186mNRNH 24, Uttar Pradesh
35/==/DAMDhamora  18:02 18:03+1:4418:04 18:05+1:472m--1125.441183mNRNH 24, Uttar Pradesh
36/==/DUNDuganpur  18:11 18:13+1:4618:13 18:15+1:452m--1130.850180mNRNH 24, Uttar Pradesh
37/==/MILMilak  18:22+1:4818:24+1:532m--1136.750180mNRMilak, Uttar Pradesh
38/==/NRSNagaria SadatX  18:34+1:5318:36+1:542m--1145.048177mNRNagaria Sadat, Uttar Pradesh
39/==/DANDhanetaO  18:44 18:45+1:5818:46 18:47+2:052m--1152.241174mNRNH 24, Uttar Pradesh
40/==/BTOBhitaura  18:53 18:56+2:0518:55 18:58+2:062m--1158.440173mNRFatehganj Pashchimi, Uttar Pradesh
41/==/PKRAParsa KheraX  19:02 19:06+2:1419:04 19:08+2:182m--1163.743170mNRNH 24, Uttar Pradesh
42/==/CBJClutterbuckGanjXO  19:11 19:15+2:1319:13 19:17+2:182m--1168.89172mNRBareilly, Uttar Pradesh
43/==/BEBareilly Junction (4)X  20:10+1:2220:20+1:2110m11176.638174mNRBareilly, Uttar Pradesh
44/==/CHTIChanehti Junction  20:25 20:26+1:3820:27 20:28+1:382m--1180.444168mNRBareilly, Uttar Pradesh
45/==/RYSRasuriyaX  20:35 20:37+1:3720:37 20:39+1:402m--1187.057174mNRNH 24, Uttar Pradesh
46/==/PMRPitambarpur (3)  20:46 20:49+1:3020:48 20:51+1:302m--1196.557171mNRPitambarpur, Uttar Pradesh
47/==/TSATisua  20:57 21:00+1:4320:59 21:02+1:462m--1205.053165mNRNational Highway 24, Uttar Pradesh
48/==/BLPUBilpurX  21:07 21:10+1:4621:09 21:12+1:492m--1212.054161mNRFatehganj, Uttar Pradesh
49/==/MKMiranpur Katra  21:17 21:20+1:5621:19 21:22+1:562m--1219.242162mNRShahjahanpur, Uttar Pradesh
50/==/TLHTilharX  21:31 21:36+1:3921:33 21:38+1:532m--1229.042163mNRTilhar, Uttar Pradesh
51/==/BTRABanthraX  21:35 21:52+1:5621:37 21:54+1:572m--1238.736154mNRNH 24, Uttar Pradesh
52/==/SPNShahjahanpur Junction (5)  22:05 22:08+1:2122:10 22:13+1:285m--1247.155156mNRShahjahanpur, Uttar Pradesh
53/=-|ROZARoza Junction (4)  22:18 22:21+2:1422:20 22:23+2:242m--1254.426156mNRShahjahanpur, Uttar Pradesh
54/==/KHKahiliyaX  22:45 22:43+2:2522:47 22:45+2:352m--1263.057152mNRSH 25, Uttar Pradesh
55/==/AIGAlgawanXO  22:56 22:54+2:3722:58 22:56+2:392m--1271.547152mNRAlgawan, Uttar Pradesh
56/==/AJIAnjhi ShahabadO  23:05 23:04+2:3923:07 23:06+2:502m--1277.864148mNRAnjhi Shahabad, Uttar Pradesh
57/==/TDPTodarpurX  23:15 23:14+2:5123:17 23:16+2:502m--1286.355147mNRSH 25, Uttar Pradesh
58/==/BEGBehtagokulX  23:24 23:23+2:5123:26 23:25+3:032m--1292.759152mNRBehtagokul, Uttar Pradesh
59/==/KUFKaurhaX  23:35 23:34+3:0523:37 23:36+3:082m--1301.650148mNRSH 25, Uttar Pradesh
60/==/HRIHardoi (5)  23:59 23:46+2:5900:01 23:48+3:082m--1310.045146mNRHardoi, Uttar Pradesh
61/==/KARKarnaX  00:14 00:01+3:1400:16 00:03+3:262m--2319.956143mNRHardoi, Uttar Pradesh
62/==/MSTMasit  00:24 00:11+3:2600:26 00:13+3:252m--2327.452141mNRSH 25, Uttar Pradesh
63/==/BGHBaghauliX  00:34 00:21+3:2500:36 00:23+3:372m--2334.358141mNRsharda nehar, Uttar Pradesh
64/==/BLMBalamau Junction (4)X  00:42 00:32+3:3800:47 00:34+3:395 2m--2343.043139mNRBalamau, Uttar Pradesh
65/==/DLQDalelnagar  00:59 00:46+3:3501:01 00:48+3:342m--2351.748136mNRSH 25, Uttar Pradesh
66/==/UTAUmar TaliX  01:08 00:56+3:3301:10 00:58+3:542m--2358.140135mNRHardoi, Uttar Pradesh
67/==/SANSandila (3)  01:17 01:06+3:5401:19 01:08+4:002m--2363.460132mNRSandila, Uttar Pradesh
68/==/RBDRahimabadX  01:31 01:19+3:5901:33 01:21+4:082m--2374.451132mNRSH 25, Uttar Pradesh
69/==/DILDilawarnagarXO  01:41 01:30+4:0901:43 01:32+4:102m--2382.043133mNRSH 25, Uttar Pradesh
70/==/MLDMalihabadX  01:50 01:40+4:1101:52 01:42+4:202m--2387.658130mNRMalihabad, Uttar Pradesh
71/==/KKJKakori (3)XO  02:01 01:52+4:3002:03 01:54+4:482m--2397.34129mNRSH 25, Uttar Pradesh
72/==/AMGAlamnagar (3)O  03:42 03:41+3:1903:43+3:341 2m--2404.819126mNRLucknow, Uttar Pradesh
73/==/LKOLucknow Charbagh NR (9)•  04:05+1:45-72411.8-124mNRLucknow 226004, Uttar Pradesh
Scroll to Top
Scroll to Bottom


Go to Mobile site